Portada
METAR-TAF:

METAR-TAF

Aeroports :

Multan, Pakistan

latitud: 30-12-12N, longitud: 71-25-09E, altitud: 122 m

Observació

L'informe es va fer fa 33 minuts, a les 14:00 UTC
Vent calma
Temperatura 23°C
Humitat 44%
Pressió 1017 hPa
Visibilitat: 5000 m
Núvols disperses a una alçada de 20000 ft
calitja

METAR: OPMT 171400Z 00000KT 5000 HZ SCT200 23/10 Q1017 NOSIG

Hora: 19:33 (14:33 UTC)

Pronòstic

L'informe es va fer fa 4 hores i 48 minuts, a les 09:45 UTC
Pronòstic vàlid del 17 a les 12 UTC al 18 a les 06 UTC
Vent 5 kt del Nord-Est
Visibilitat: 4000 m
Escasses núvols a una alçada de 20000 ft
fum
Probabilitat 30% :
Temporalment
l' 18 a les 01 UTC al 18 a les 04 UTC
Vent kt del Nord
Visibilitat: 2000 m
Núvols disperses a una alçada de 10000 ft
fum

TAF: OPMT 170945Z 1712/1806 05005KT 4000 FU FEW200 TN10/1801Z PROB30 TEMPO 1801/1804 00000KT 2000 FU SCT100

Observacions i pronòstics meteorològics de més de 4000 aeroports (METAR i TAF).

Les estacions disponibles són els punts grocs i vermells al mapa.

Posi el ratolí al punt desitjat per veure el nom de l'estació.

Feu clic per veure les observacions i els pronòstics meteorològics.

Per canviar el mapa: feu clic els botons verds amb una creu de color negre per apropar; al botó verd amb un guió per allunyar la imatge; o en les fletxes verdes per a mapes adjacents.


METAR-TAF: